Time;durP1;ratioP1;P1;durP2;ratioP2;P2;SDS_P1;SDS_P2;PMS_P1;PMS_P2;Temp;Humidity;BMP_temperature;BMP_pressure;BME280_temperature;BME280_humidity;BME280_pressure;Samples;Min_cycle;Max_cycle;Signal;HPM_P1;HPM_P2
2022/10/23 00:01:17;;;;;;;13.53;8.47;;;;;;;12.03;97.43;101657.31;4949088;28;20209;-78
2022/10/23 00:03:44;;;;;;;13.27;9.33;;;;;;;11.99;97.82;101654.63;4950956;28;20587;-78
2022/10/23 00:06:10;;;;;;;9.70;8.63;;;;;;;12.02;98.29;101657.25;4947577;28;20209;-78
2022/10/23 00:08:36;;;;;;;10.23;8.83;;;;;;;12.01;97.98;101652.97;4949868;28;20188;-79
2022/10/23 00:11:06;;;;;;;12.63;9.20;;;;;;;12.04;98.63;101651.38;4948918;28;20299;-78
2022/10/23 00:13:31;;;;;;;15.17;10.40;;;;;;;11.95;98.98;101653.69;4950550;28;20760;-79
2022/10/23 00:15:57;;;;;;;15.23;9.60;;;;;;;11.97;99.21;101649.47;4952468;28;20192;-78
2022/10/23 00:18:22;;;;;;;15.00;9.80;;;;;;;12.04;99.06;101658.19;4953055;29;20199;-79
2022/10/23 00:20:47;;;;;;;12.77;11.13;;;;;;;12.05;99.87;101665.06;4953652;29;20212;-78
2022/10/23 00:23:13;;;;;;;14.77;11.63;;;;;;;11.99;100.00;101664.91;4954282;28;20915;-78
2022/10/23 00:25:38;;;;;;;13.73;11.03;;;;;;;11.99;100.00;101662.34;4952810;28;20208;-78
2022/10/23 00:28:04;;;;;;;12.10;10.87;;;;;;;11.97;100.00;101664.84;4955158;29;20192;-77
2022/10/23 00:30:29;;;;;;;14.53;11.07;;;;;;;11.93;100.00;101659.63;4951599;28;20213;-78
2022/10/23 00:32:54;;;;;;;11.20;10.03;;;;;;;11.87;100.00;101656.88;4948847;28;20193;-78
2022/10/23 00:35:20;;;;;;;13.67;10.03;;;;;;;11.86;100.00;101662.84;4954701;28;20232;-79
2022/10/23 00:37:46;;;;;;;13.57;9.73;;;;;;;11.78;100.00;101661.75;4954851;28;20193;-78
2022/10/23 00:40:12;;;;;;;14.40;9.23;;;;;;;11.71;100.00;101659.84;4953600;29;20240;-77
2022/10/23 00:42:37;;;;;;;10.80;9.10;;;;;;;11.72;100.00;101659.03;4952981;28;20225;-78
2022/10/23 00:45:18;;;;;;;12.23;10.13;;;;;;;11.64;99.58;101661.38;4952880;28;20280;-78
2022/10/23 00:47:43;;;;;;;13.63;9.17;;;;;;;11.59;99.75;101664.59;4950723;28;20563;-78
2022/10/23 00:50:09;;;;;;;11.83;9.53;;;;;;;11.60;99.57;101662.09;4954572;28;20199;-78
2022/10/23 00:52:40;;;;;;;11.23;9.00;;;;;;;11.52;99.90;101655.00;4953253;29;20189;-78
2022/10/23 00:55:07;;;;;;;12.90;10.03;;;;;;;11.49;99.32;101660.03;4953320;28;20682;-78
2022/10/23 00:57:32;;;;;;;11.60;8.90;;;;;;;11.45;98.91;101658.19;4954337;28;20185;-78
2022/10/23 00:59:58;;;;;;;10.97;8.80;;;;;;;11.44;99.04;101651.34;4953075;29;20710;-78
2022/10/23 01:02:23;;;;;;;13.53;8.93;;;;;;;11.33;99.59;101647.63;4936383;29;20223;-79
2022/10/23 01:04:49;;;;;;;12.27;7.93;;;;;;;11.33;99.57;101651.03;4952915;28;20272;-77
2022/10/23 01:07:24;;;;;;;10.97;7.80;;;;;;;11.19;99.97;101654.88;4953092;28;20215;-78
2022/10/23 01:09:58;;;;;;;11.27;8.70;;;;;;;11.21;99.90;101660.06;4949051;29;20309;-77
2022/10/23 01:12:33;;;;;;;11.43;8.30;;;;;;;11.20;99.49;101654.03;4934429;29;20190;-78
2022/10/23 01:15:26;;;;;;;11.33;8.13;;;;;;;11.18;99.15;101660.84;4966513;28;20288;-79
2022/10/23 01:18:02;;;;;;;19.90;7.80;;;;;;;11.12;99.01;101658.09;4935824;29;20197;-79
2022/10/23 01:20:35;;;;;;;11.23;7.30;;;;;;;11.04;99.08;101654.44;4949638;29;20251;-79
2022/10/23 01:23:22;;;;;;;10.77;7.97;;;;;;;11.07;98.77;101667.31;4951083;29;20556;-78
2022/10/23 01:26:18;;;;;;;12.10;7.43;;;;;;;11.04;98.86;101664.69;4934265;29;20189;-78
2022/10/23 01:28:59;;;;;;;28.87;9.10;;;;;;;11.02;99.46;101662.88;4951423;29;20468;-77
2022/10/23 01:31:47;;;;;;;31.60;12.13;;;;;;;11.07;100.00;101661.34;4953281;28;21018;-79
2022/10/23 01:34:16;;;;;;;20.57;11.57;;;;;;;11.09;100.00;101670.81;4944824;28;20185;-77
2022/10/23 01:36:47;;;;;;;17.50;11.33;;;;;;;11.10;100.00;101664.00;4948546;29;20590;-77
2022/10/23 01:39:23;;;;;;;17.60;12.40;;;;;;;11.11;100.00;101664.03;4952516;28;20196;-78
2022/10/23 01:42:07;;;;;;;15.30;11.97;;;;;;;11.09;100.00;101655.44;4950888;29;20593;-78
2022/10/23 01:44:48;;;;;;;17.33;12.47;;;;;;;11.10;100.00;101664.00;4951400;28;20208;-78
2022/10/23 01:47:17;;;;;;;14.93;12.07;;;;;;;11.06;100.00;101665.59;4954019;28;20181;-78
2022/10/23 01:49:56;;;;;;;22.47;12.50;;;;;;;11.05;100.00;101662.97;4952293;28;20882;-77
2022/10/23 01:52:22;;;;;;;12.47;10.80;;;;;;;11.07;100.00;101658.78;4948822;29;20181;-78
2022/10/23 01:54:52;;;;;;;18.17;11.70;;;;;;;11.03;100.00;101662.06;4948642;28;20201;-78
2022/10/23 01:57:21;;;;;;;15.67;11.00;;;;;;;11.02;100.00;101661.19;4952229;28;20733;-78
2022/10/23 01:59:55;;;;;;;20.83;10.33;;;;;;;11.02;100.00;101658.63;4934404;29;20197;-78
2022/10/23 02:02:23;;;;;;;14.03;10.33;;;;;;;10.95;100.00;101658.38;4951586;28;20214;-78
2022/10/23 02:05:05;;;;;;;18.20;10.03;;;;;;;10.96;100.00;101653.31;4951167;28;20200;-77
2022/10/23 02:07:30;;;;;;;22.07;9.97;;;;;;;10.93;100.00;101652.34;4947519;28;20224;-78
2022/10/23 02:09:57;;;;;;;13.77;9.90;;;;;;;10.91;100.00;101643.75;4951437;28;20244;-78
2022/10/23 02:12:30;;;;;;;15.57;10.13;;;;;;;10.92;100.00;101646.34;4951376;29;20200;-78
2022/10/23 02:15:15;;;;;;;17.03;9.73;;;;;;;10.81;100.00;101642.59;4951515;28;20196;-78
2022/10/23 02:17:56;;;;;;;14.73;9.97;;;;;;;10.79;100.00;101645.94;4950626;29;20255;-78
2022/10/23 02:20:51;;;;;;;32.20;10.60;;;;;;;10.74;100.00;101640.66;4951330;29;20610;-78
2022/10/23 02:23:23;;;;;;;15.50;8.87;;;;;;;10.76;100.00;101640.72;4942442;29;20231;-79
2022/10/23 02:26:05;;;;;;;11.37;9.23;;;;;;;10.78;100.00;101634.81;4947790;29;20288;-78
2022/10/23 02:28:40;;;;;;;12.90;8.50;;;;;;;10.82;100.00;101628.97;4949457;29;20185;-77
2022/10/23 02:31:11;;;;;;;14.77;8.93;;;;;;;10.81;100.00;101623.78;4961453;28;20297;-77
2022/10/23 02:33:38;;;;;;;20.90;10.07;;;;;;;10.83;100.00;101625.56;4949386;29;20619;-78
2022/10/23 02:36:04;;;;;;;15.87;9.27;;;;;;;10.81;100.00;101626.34;4950942;28;20190;-77
2022/10/23 02:38:47;;;;;;;28.10;11.37;;;;;;;10.80;100.00;101629.75;4951513;29;20267;-78
2022/10/23 02:41:22;;;;;;;22.17;10.50;;;;;;;10.76;100.00;101626.22;4965364;28;20224;-77
2022/10/23 02:43:53;;;;;;;16.63;10.70;;;;;;;10.74;100.00;101629.56;4948792;29;20251;-77
2022/10/23 02:46:41;;;;;;;13.37;10.60;;;;;;;10.72;100.00;101631.19;4931545;29;20199;-77
2022/10/23 02:49:16;;;;;;;36.20;11.77;;;;;;;10.68;100.00;101632.78;4947686;29;20208;-78
2022/10/23 02:51:41;;;;;;;12.70;9.70;;;;;;;10.68;100.00;101637.91;4950734;28;20232;-76
2022/10/23 02:54:19;;;;;;;12.90;10.03;;;;;;;10.72;100.00;101634.63;4950402;28;20670;-77
2022/10/23 02:56:55;;;;;;;10.87;9.57;;;;;;;10.73;100.00;101630.38;4950979;28;20233;-76
2022/10/23 02:59:46;;;;;;;16.90;9.60;;;;;;;10.74;100.00;101632.13;4928928;29;20194;-77
2022/10/23 03:02:24;;;;;;;17.13;9.93;;;;;;;10.69;100.00;101637.09;4960398;28;20213;-80
2022/10/23 03:04:53;;;;;;;23.17;9.47;;;;;;;10.69;100.00;101634.53;4952999;29;20741;-77
2022/10/23 03:07:18;;;;;;;13.37;10.00;;;;;;;10.70;100.00;101632.84;4950166;29;20201;-77
2022/10/23 03:09:44;;;;;;;18.67;10.03;;;;;;;10.69;100.00;101638.78;4951839;28;20195;-77
2022/10/23 03:12:09;;;;;;;15.50;9.43;;;;;;;10.64;100.00;101627.53;4951750;28;20211;-78
2022/10/23 03:14:35;;;;;;;11.93;9.70;;;;;;;10.68;100.00;101627.66;4950974;29;20266;-78
2022/10/23 03:17:02;;;;;;;12.67;9.20;;;;;;;10.68;100.00;101630.22;4948776;28;20192;-78
2022/10/23 03:19:27;;;;;;;18.43;9.17;;;;;;;10.63;100.00;101629.22;4948361;28;20208;-78
2022/10/23 03:21:55;;;;;;;10.53;9.10;;;;;;;10.65;100.00;101619.88;4948784;28;20221;-79
2022/10/23 03:24:20;;;;;;;25.30;9.97;;;;;;;10.58;100.00;101620.53;4950512;29;20732;-77
2022/10/23 03:26:45;;;;;;;16.80;9.30;;;;;;;10.56;100.00;101627.25;4948133;29;20198;-78
2022/10/23 03:29:11;;;;;;;18.20;8.50;;;;;;;10.56;100.00;101626.41;4950321;29;20199;-78
2022/10/23 03:31:44;;;;;;;11.27;8.17;;;;;;;10.49;100.00;101635.59;4949814;29;20681;-78
2022/10/23 03:34:10;;;;;;;14.60;9.27;;;;;;;10.45;100.00;101630.31;4951631;28;20201;-78
2022/10/23 03:36:38;;;;;;;12.63;8.30;;;;;;;10.43;100.00;101626.84;4943928;29;20185;-78
2022/10/23 03:39:04;;;;;;;12.80;8.67;;;;;;;10.44;100.00;101624.34;4963379;28;20593;-78
2022/10/23 03:41:30;;;;;;;13.43;8.20;;;;;;;10.42;100.00;101623.41;4949652;28;20320;-79
2022/10/23 03:43:55;;;;;;;17.80;8.60;;;;;;;10.32;100.00;101623.91;4949871;29;20224;-78
2022/10/23 03:46:21;;;;;;;14.00;8.67;;;;;;;10.28;100.00;101623.78;4948118;29;20248;-79
2022/10/23 03:48:51;;;;;;;10.33;8.10;;;;;;;10.32;100.00;101621.38;4946845;28;20190;-77
2022/10/23 03:51:16;;;;;;;11.73;7.50;;;;;;;10.23;100.00;101628.75;4949571;29;20590;-77
2022/10/23 03:53:42;;;;;;;9.00;6.90;;;;;;;10.20;100.00;101620.09;4949276;29;20211;-78
2022/10/23 03:56:07;;;;;;;10.67;7.13;;;;;;;10.16;100.00;101619.13;4947817;29;20678;-78
2022/10/23 03:58:33;;;;;;;10.37;6.67;;;;;;;10.04;100.00;101621.25;4949943;29;20563;-78
2022/10/23 04:00:58;;;;;;;8.90;8.00;;;;;;;10.09;100.00;101619.72;4949966;28;20221;-78
2022/10/23 04:03:25;;;;;;;12.77;7.10;;;;;;;10.05;100.00;101623.00;4949356;28;20224;-77
2022/10/23 04:05:51;;;;;;;9.83;7.57;;;;;;;10.02;100.00;101622.88;4929912;29;20198;-78
2022/10/23 04:08:18;;;;;;;9.47;8.00;;;;;;;10.05;100.00;101629.81;4948781;29;20615;-78
2022/10/23 04:10:46;;;;;;;11.33;7.80;;;;;;;10.01;100.00;101625.38;4947712;29;20684;-78
2022/10/23 04:13:12;;;;;;;9.60;8.27;;;;;;;9.94;100.00;101619.19;4945802;28;20205;-76
2022/10/23 04:15:37;;;;;;;9.83;7.97;;;;;;;9.92;100.00;101625.06;4945211;29;20279;-77
2022/10/23 04:18:03;;;;;;;16.17;9.03;;;;;;;9.91;100.00;101624.19;4952415;28;20546;-80
2022/10/23 04:20:30;;;;;;;12.37;9.27;;;;;;;9.91;100.00;101625.91;4950406;28;20212;-77
2022/10/23 04:22:59;;;;;;;12.57;8.63;;;;;;;9.88;100.00;101624.09;4950855;29;20335;-76
2022/10/23 04:25:25;;;;;;;20.40;9.63;;;;;;;9.84;100.00;101626.47;4966625;28;20662;-76
2022/10/23 04:27:50;;;;;;;12.97;8.97;;;;;;;9.85;100.00;101625.66;4951492;29;20284;-80
2022/10/23 04:30:17;;;;;;;14.17;8.53;;;;;;;9.87;100.00;101622.34;4935183;29;20196;-79
2022/10/23 04:32:44;;;;;;;10.37;8.43;;;;;;;9.87;100.00;101614.66;4965494;28;20185;-78
2022/10/23 04:35:09;;;;;;;15.63;8.50;;;;;;;9.91;100.00;101613.09;4939155;29;20192;-79
2022/10/23 04:37:35;;;;;;;9.97;8.40;;;;;;;9.85;100.00;101610.31;4951480;29;20233;-80
2022/10/23 04:40:01;;;;;;;12.50;9.00;;;;;;;9.79;100.00;101602.44;4934429;29;20593;-79
2022/10/23 04:42:26;;;;;;;13.87;8.03;;;;;;;9.77;100.00;101599.81;4947876;29;20220;-77
2022/10/23 04:44:51;;;;;;;10.83;7.93;;;;;;;9.68;100.00;101603.78;4951490;28;20327;-78
2022/10/23 04:47:17;;;;;;;11.73;8.00;;;;;;;9.70;100.00;101602.13;4949785;29;20221;-77
2022/10/23 04:49:55;;;;;;;14.33;8.50;;;;;;;9.63;100.00;101602.75;4949684;29;20195;-77
2022/10/23 04:52:34;;;;;;;11.83;8.80;;;;;;;9.62;100.00;101593.31;4951529;28;20244;-78
2022/10/23 04:55:24;;;;;;;10.07;8.23;;;;;;;9.59;100.00;101588.94;4945973;29;20564;-78
2022/10/23 04:58:09;;;;;;;14.47;7.63;;;;;;;9.55;100.00;101593.91;4946795;29;20268;-77
2022/10/23 05:00:35;;;;;;;10.90;8.37;;;;;;;9.66;100.00;101603.72;4935238;29;20201;-78
2022/10/23 05:03:01;;;;;;;10.80;8.13;;;;;;;9.69;100.00;101608.06;4953531;28;20711;-77
2022/10/23 05:05:33;;;;;;;11.80;8.83;;;;;;;9.70;100.00;101605.56;4949204;28;20188;-78
2022/10/23 05:08:03;;;;;;;12.70;8.03;;;;;;;9.62;100.00;101606.09;4960216;29;20655;-77
2022/10/23 05:10:41;;;;;;;10.27;7.83;;;;;;;9.57;100.00;101605.06;4954844;29;20211;-79
2022/10/23 05:13:10;;;;;;;8.90;7.53;;;;;;;9.55;100.00;101604.16;4949316;29;20224;-78
2022/10/23 05:15:35;;;;;;;10.10;8.33;;;;;;;9.63;100.00;101600.19;4954633;29;20193;-77
2022/10/23 05:18:12;;;;;;;11.07;8.10;;;;;;;9.67;100.00;101597.78;4950452;29;20203;-77
2022/10/23 05:20:39;;;;;;;12.97;9.00;;;;;;;9.70;100.00;101597.88;4948602;29;20689;-76
2022/10/23 05:23:12;;;;;;;11.07;8.97;;;;;;;9.66;100.00;101587.47;4953831;28;20212;-79
2022/10/23 05:25:38;;;;;;;12.87;8.33;;;;;;;9.69;100.00;101577.38;4955518;28;20189;-79
2022/10/23 05:28:12;;;;;;;14.83;9.87;;;;;;;9.75;100.00;101585.25;4942647;29;20580;-79
2022/10/23 05:30:38;;;;;;;11.87;8.43;;;;;;;9.73;100.00;101582.63;4939340;29;20260;-79
2022/10/23 05:33:04;;;;;;;16.03;8.77;;;;;;;9.71;100.00;101593.63;4968275;28;20193;-77
2022/10/23 05:35:37;;;;;;;16.53;9.23;;;;;;;9.74;100.00;101586.94;4953647;28;20244;-79
2022/10/23 05:38:04;;;;;;;14.07;9.57;;;;;;;9.76;100.00;101590.41;4950746;28;20189;-78
2022/10/23 05:40:31;;;;;;;16.00;8.70;;;;;;;9.63;100.00;101584.84;4950868;29;20601;-78
2022/10/23 05:43:00;;;;;;;13.07;8.40;;;;;;;9.54;100.00;101580.25;4949402;28;20248;-77
2022/10/23 05:45:45;;;;;;;12.83;9.13;;;;;;;9.56;100.00;101585.44;4946880;29;20659;-77
2022/10/23 05:48:23;;;;;;;12.53;9.10;;;;;;;9.50;100.00;101580.97;4959052;28;20305;-78
2022/10/23 05:51:21;;;;;;;11.17;8.07;;;;;;;9.42;100.00;101582.41;4959482;28;20304;-78
2022/10/23 05:54:07;;;;;;;13.43;8.30;;;;;;;9.44;100.00;101580.75;4960115;28;20672;-78
2022/10/23 05:56:42;;;;;;;13.40;8.17;;;;;;;9.44;100.00;101585.88;4956403;29;20543;-77
2022/10/23 05:59:17;;;;;;;15.30;8.67;;;;;;;9.45;100.00;101597.81;4956947;29;20199;-77
2022/10/23 06:01:48;;;;;;;10.97;8.70;;;;;;;9.43;100.00;101599.47;4954955;29;20224;-78
2022/10/23 06:04:19;;;;;;;11.83;8.10;;;;;;;9.37;100.00;101598.38;4943721;29;20985;-78
2022/10/23 06:07:08;;;;;;;12.27;7.50;;;;;;;9.33;100.00;101604.19;4934727;28;20197;-78
2022/10/23 06:09:34;;;;;;;12.67;8.33;;;;;;;9.31;100.00;101608.38;4954319;28;20189;-79
2022/10/23 06:12:01;;;;;;;13.17;8.43;;;;;;;9.30;100.00;101601.53;4954067;28;20857;-78
2022/10/23 06:14:27;;;;;;;17.33;12.77;;;;;;;9.32;100.00;101607.56;4952155;28;20220;-79
2022/10/23 06:16:53;;;;;;;17.13;12.77;;;;;;;9.24;100.00;101601.28;4953768;28;20214;-79
2022/10/23 06:19:19;;;;;;;12.23;10.20;;;;;;;9.26;100.00;101603.09;4955063;28;20197;-79
2022/10/23 06:21:46;;;;;;;13.20;9.63;;;;;;;9.38;100.00;101605.22;4953662;28;20248;-78
2022/10/23 06:24:13;;;;;;;16.20;9.87;;;;;;;9.37;100.00;101609.47;4953966;28;20204;-78
2022/10/23 06:27:01;;;;;;;11.20;7.37;;;;;;;9.36;100.00;101601.75;4953465;29;20197;-79
2022/10/23 06:29:37;;;;;;;15.80;8.37;;;;;;;9.42;100.00;101601.97;4955161;29;20196;-76
2022/10/23 06:32:03;;;;;;;9.20;7.57;;;;;;;9.42;100.00;101600.28;4949428;28;20205;-78
2022/10/23 06:34:29;;;;;;;12.90;8.43;;;;;;;9.44;100.00;101605.47;4951836;28;20204;-78
2022/10/23 06:36:54;;;;;;;9.57;7.57;;;;;;;9.50;100.00;101600.56;4951737;29;20248;-77
2022/10/23 06:39:40;;;;;;;9.70;8.33;;;;;;;9.56;100.00;101593.09;4961577;28;20197;-77
2022/10/23 06:42:28;;;;;;;12.57;8.77;;;;;;;9.64;100.00;101594.25;4950667;28;20224;-78
2022/10/23 06:44:54;;;;;;;9.20;7.97;;;;;;;9.70;100.00;101595.34;4954377;28;20544;-77
2022/10/23 06:47:39;;;;;;;11.37;9.07;;;;;;;9.74;100.00;101591.19;4941851;28;20308;-77
2022/10/23 06:50:37;;;;;;;10.37;8.67;;;;;;;9.78;100.00;101591.34;4959381;29;20220;-78
2022/10/23 06:53:08;;;;;;;11.90;8.20;;;;;;;9.81;100.00;101583.78;4956552;28;20196;-78
2022/10/23 06:55:38;;;;;;;11.47;7.23;;;;;;;9.84;100.00;101585.56;4954712;29;20188;-79
2022/10/23 06:58:09;;;;;;;14.33;8.40;;;;;;;9.88;100.00;101587.41;4946332;29;20272;-79
2022/10/23 07:00:39;;;;;;;14.40;8.60;;;;;;;9.97;100.00;101586.03;4968875;28;20219;-79
2022/10/23 07:03:07;;;;;;;10.47;8.73;;;;;;;10.07;100.00;101579.56;4964546;28;20327;-78
2022/10/23 07:05:33;;;;;;;10.13;8.23;;;;;;;10.16;100.00;101585.88;4948787;28;20192;-80
2022/10/23 07:07:58;;;;;;;13.60;9.10;;;;;;;10.23;100.00;101580.09;4968060;28;20418;-78
2022/10/23 07:10:27;;;;;;;11.60;8.40;;;;;;;10.33;100.00;101574.47;4967736;28;20244;-79
2022/10/23 07:12:59;;;;;;;13.67;8.50;;;;;;;10.45;100.00;101572.31;4952820;29;20193;-79
2022/10/23 07:15:39;;;;;;;12.07;8.90;;;;;;;10.63;100.00;101572.88;4962352;28;20576;-79
2022/10/23 07:18:13;;;;;;;11.57;9.33;;;;;;;10.80;100.00;101568.25;4947043;29;20276;-80
2022/10/23 07:21:10;;;;;;;14.67;10.53;;;;;;;10.89;100.00;101568.53;4968581;28;20225;-80
2022/10/23 07:23:38;;;;;;;14.57;9.97;;;;;;;10.94;100.00;101578.09;4935476;28;20369;-80
2022/10/23 07:26:10;;;;;;;15.07;9.20;;;;;;;11.03;100.00;101573.25;4968953;28;20281;-79
2022/10/23 07:28:36;;;;;;;12.40;9.07;;;;;;;11.14;100.00;101569.28;4952786;29;20679;-80
2022/10/23 07:31:02;;;;;;;13.70;10.27;;;;;;;11.31;100.00;101578.34;4951524;29;20293;-78
2022/10/23 07:33:48;;;;;;;13.40;9.47;;;;;;;11.48;100.00;101581.38;4951899;28;20204;-79
2022/10/23 07:36:17;;;;;;;11.13;8.93;;;;;;;11.58;100.00;101580.78;4951705;29;20185;-79
2022/10/23 07:38:43;;;;;;;16.67;9.17;;;;;;;11.72;100.00;101582.03;4950107;29;20193;-80
2022/10/23 07:41:09;;;;;;;11.80;8.47;;;;;;;11.87;100.00;101579.88;4951375;29;21273;-78
2022/10/23 07:43:36;;;;;;;9.60;7.60;;;;;;;12.08;100.00;101586.41;4951406;28;20223;-78
2022/10/23 07:46:02;;;;;;;13.67;8.47;;;;;;;12.23;100.00;101579.13;4955800;29;20185;-78
2022/10/23 07:48:32;;;;;;;11.43;8.23;;;;;;;12.28;99.98;101579.22;4953347;28;20220;-78
2022/10/23 07:51:00;;;;;;;11.47;8.37;;;;;;;12.29;99.68;101583.50;4951931;28;20244;-77
2022/10/23 07:53:26;;;;;;;12.90;8.10;;;;;;;12.41;99.30;101584.69;4966555;28;20182;-78
2022/10/23 07:55:58;;;;;;;13.30;9.00;;;;;;;12.51;99.14;101585.75;4950838;29;20280;-77
2022/10/23 07:58:28;;;;;;;10.13;8.20;;;;;;;12.62;98.82;101587.75;4950837;29;20193;-76
2022/10/23 08:01:33;;;;;;;11.97;8.13;;;;;;;12.51;97.98;101590.91;4950468;29;20570;-77
2022/10/23 08:03:59;;;;;;;17.20;8.13;;;;;;;12.90;97.40;101582.38;4949841;29;20280;-78
2022/10/23 08:06:26;;;;;;;11.23;7.83;;;;;;;13.10;96.70;101571.69;4949637;29;20277;-74
2022/10/23 08:08:52;;;;;;;9.93;7.43;;;;;;;13.15;95.52;101578.66;4948201;28;20277;-77
2022/10/23 08:11:24;;;;;;;12.03;8.23;;;;;;;13.45;95.04;101575.84;4943771;29;20213;-76
2022/10/23 08:13:56;;;;;;;11.93;7.90;;;;;;;13.58;94.35;101565.81;4944192;29;20190;-76
2022/10/23 08:16:24;;;;;;;11.33;7.63;;;;;;;13.85;93.01;101556.00;4950511;28;20192;-77
2022/10/23 08:18:59;;;;;;;11.37;7.47;;;;;;;14.24;91.53;101550.69;4949994;28;20204;-77
2022/10/23 08:21:25;;;;;;;10.03;7.30;;;;;;;14.47;89.88;101542.50;4950032;29;20339;-78
2022/10/23 08:23:53;;;;;;;9.93;6.80;;;;;;;14.77;87.96;101537.75;4950900;29;20223;-77
2022/10/23 08:26:19;;;;;;;11.17;6.83;;;;;;;14.90;87.04;101541.34;4933612;29;20190;-78
2022/10/23 08:28:45;;;;;;;9.83;7.00;;;;;;;15.12;86.82;101544.25;4931470;29;20190;-78
2022/10/23 08:31:16;;;;;;;9.77;7.37;;;;;;;15.50;86.24;101542.09;4930129;29;20614;-77
2022/10/23 08:33:55;;;;;;;8.37;5.97;;;;;;;15.83;84.44;101532.97;4947264;28;20192;-79
2022/10/23 08:36:26;;;;;;;6.70;5.40;;;;;;;16.18;82.38;101535.88;4954919;28;20189;-77
2022/10/23 08:38:54;;;;;;;8.65;5.70;;;;;;;16.57;80.71;101528.44;4951274;29;20213;-77
2022/10/23 08:41:41;;;;;;;7.93;5.30;;;;;;;17.35;78.56;101526.16;4953107;28;20205;-77
2022/10/23 08:44:33;;;;;;;6.32;4.68;;;;;;;17.45;76.21;101525.41;4949426;29;20840;-78
2022/10/23 08:47:13;;;;;;;8.45;5.43;;;;;;;17.31;77.11;101533.06;4953502;29;20241;-76
2022/10/23 08:49:55;;;;;;;7.17;5.10;;;;;;;17.47;75.92;101528.84;4952875;29;20820;-76
2022/10/23 08:52:45;;;;;;;9.67;5.27;;;;;;;17.32;76.75;101521.00;4950881;29;20220;-77
2022/10/23 08:55:21;;;;;;;8.87;5.47;;;;;;;17.53;76.59;101524.53;4953513;28;20177;-76
2022/10/23 08:57:56;;;;;;;8.60;5.40;;;;;;;17.47;75.43;101524.53;4951542;28;20207;-75
2022/10/23 09:00:21;;;;;;;6.43;5.30;;;;;;;17.69;75.03;101512.47;4954608;28;20231;-76
2022/10/23 09:02:50;;;;;;;7.57;5.53;;;;;;;18.94;71.13;101508.91;4952924;28;20734;-77
2022/10/23 09:05:38;;;;;;;6.33;4.97;;;;;;;19.27;69.20;101516.56;4954608;28;20560;-77
2022/10/23 09:08:28;;;;;;;5.70;5.00;;;;;;;19.55;67.73;101514.66;4952554;29;20193;-77
2022/10/23 09:11:20;;;;;;;5.63;4.50;;;;;;;19.82;67.28;101510.13;4952634;29;20663;-76
2022/10/23 09:14:18;;;;;;;6.10;4.60;;;;;;;20.47;64.81;101507.84;4936397;29;20192;-76
2022/10/23 09:17:05;;;;;;;6.77;4.87;;;;;;;20.09;66.46;101509.06;4954038;28;22354;-77
2022/10/23 09:19:31;;;;;;;8.20;4.53;;;;;;;20.10;67.18;101497.78;4950951;28;20667;-80
2022/10/23 09:21:57;;;;;;;9.10;5.27;;;;;;;20.01;66.41;101503.03;4951282;28;20267;-78
2022/10/23 09:24:24;;;;;;;6.20;5.10;;;;;;;19.70;67.52;101502.41;4953027;29;20196;-78
2022/10/23 09:26:52;;;;;;;7.10;5.03;;;;;;;19.90;67.77;101502.28;4953247;29;20201;-79
2022/10/23 09:29:23;;;;;;;7.73;4.93;;;;;;;19.83;66.90;101504.06;4952580;29;20268;-79
2022/10/23 09:31:57;;;;;;;6.97;5.40;;;;;;;18.66;70.35;101503.78;4953172;28;20201;-77
2022/10/23 09:34:25;;;;;;;7.37;5.50;;;;;;;19.06;70.78;101502.75;4953979;28;20616;-77
2022/10/23 09:36:54;;;;;;;7.80;5.07;;;;;;;19.28;70.56;101491.44;4953278;29;20193;-77
2022/10/23 09:39:29;;;;;;;7.37;5.53;;;;;;;18.84;71.82;101488.16;4945520;29;21039;-79
2022/10/23 09:41:55;;;;;;;11.40;5.77;;;;;;;18.73;72.51;101495.97;4942170;28;20499;-82
2022/10/23 09:44:26;;;;;;;7.27;5.00;;;;;;;18.79;73.72;101502.91;4954259;28;20200;-77
2022/10/23 09:47:10;;;;;;;6.87;5.33;;;;;;;18.48;73.90;101504.72;4949121;28;20660;-76
2022/10/23 09:49:38;;;;;;;10.50;5.67;;;;;;;18.59;74.26;101509.84;4952610;28;20204;-77
2022/10/23 09:52:18;;;;;;;9.47;5.10;;;;;;;18.32;75.59;101494.31;4945605;29;20213;-78
2022/10/23 09:54:57;;;;;;;9.10;5.57;;;;;;;18.38;75.05;101497.78;4944527;28;20237;-79
2022/10/23 09:57:49;;;;;;;11.47;5.73;;;;;;;18.35;75.86;101499.53;4946587;29;20654;-80
2022/10/23 10:00:24;;;;;;;6.40;5.27;;;;;;;18.31;75.28;101503.84;4949885;29;20599;-78
2022/10/23 10:03:04;;;;;;;7.30;5.33;;;;;;;18.30;75.68;101498.66;4951922;28;20232;-78
2022/10/23 10:05:43;;;;;;;6.70;5.30;;;;;;;18.30;75.71;101502.13;4952241;28;20189;-79
2022/10/23 10:08:23;;;;;;;10.60;5.33;;;;;;;18.34;75.24;101500.41;4953535;29;20200;-77
2022/10/23 10:11:01;;;;;;;8.87;5.40;;;;;;;18.58;75.50;101493.44;4950319;29;20216;-76
2022/10/23 10:13:32;;;;;;;8.33;5.37;;;;;;;18.67;75.64;101490.81;4953220;28;20180;-77
2022/10/23 10:16:05;;;;;;;7.80;5.50;;;;;;;18.49;74.61;101483.09;4954330;28;20749;-79
2022/10/23 10:18:40;;;;;;;6.17;5.50;;;;;;;18.57;74.50;101480.47;4952427;29;20188;-79
2022/10/23 10:21:09;;;;;;;5.60;4.63;;;;;;;18.93;73.75;101481.19;4952040;29;20697;-78
2022/10/23 10:24:01;;;;;;;7.73;5.20;;;;;;;18.70;74.84;101470.03;4960280;28;20213;-79
2022/10/23 10:26:35;;;;;;;9.77;4.77;;;;;;;19.34;72.84;101458.50;4954184;29;20201;-77
2022/10/23 10:29:28;;;;;;;6.27;4.60;;;;;;;19.64;71.79;101454.81;4946422;28;20196;-78
2022/10/23 10:32:04;;;;;;;8.33;5.33;;;;;;;20.13;70.82;101451.81;4916846;29;20979;-80
2022/10/23 10:34:52;;;;;;;5.90;4.70;;;;;;;21.04;66.85;101439.47;4953624;28;20193;-78
2022/10/23 10:37:29;;;;;;;5.87;4.73;;;;;;;21.40;64.86;101431.13;4955456;28;20197;-79
2022/10/23 10:40:09;;;;;;;5.77;3.70;;;;;;;21.72;62.72;101431.50;4951858;29;20193;-79
2022/10/23 10:42:57;;;;;;;7.77;4.93;;;;;;;21.77;63.69;101426.19;4953959;29;20217;-78
2022/10/23 10:45:48;;;;;;;5.57;4.23;;;;;;;22.53;60.91;101418.72;4956013;28;20197;-78
2022/10/23 10:48:31;;;;;;;7.88;3.78;;;;;;;22.03;61.32;101424.00;4951392;29;20177;-79
2022/10/23 10:51:35;;;;;;;5.47;4.07;;;;;;;22.22;62.04;101409.72;4954030;29;20235;-81
2022/10/23 10:54:46;;;;;;;5.53;3.63;;;;;;;22.77;59.85;101409.50;4953901;29;20204;-81
2022/10/23 10:57:30;;;;;;;7.03;3.78;;;;;;;24.05;56.27;101405.56;4954630;28;20662;-79
2022/10/23 11:00:00;;;;;;;6.50;4.03;;;;;;;24.60;54.87;101389.19;4950938;29;20693;-78
2022/10/23 11:02:40;;;;;;;7.22;3.80;;;;;;;24.26;55.06;101397.13;4955474;28;20217;-77
2022/10/23 11:05:29;;;;;;;6.15;3.88;;;;;;;25.05;51.89;101393.06;4965536;28;20209;-78
2022/10/23 11:08:06;;;;;;;8.55;4.03;;;;;;;24.89;53.34;101382.19;4945871;29;20197;-80
2022/10/23 11:10:33;;;;;;;6.35;4.15;;;;;;;25.05;51.93;101370.31;4955730;28;20260;-78
2022/10/23 11:12:59;;;;;;;3.78;3.15;;;;;;;24.50;53.62;101364.16;4954662;28;20181;-80
2022/10/23 11:15:37;;;;;;;4.78;4.10;;;;;;;23.99;54.90;101363.00;4970004;28;20193;-80
2022/10/23 11:18:11;;;;;;;9.20;3.65;;;;;;;23.56;57.38;101357.13;4952453;29;20188;-78
2022/10/23 11:20:54;;;;;;;6.13;3.90;;;;;;;23.49;56.50;101356.44;4952470;29;20417;-78
2022/10/23 11:23:26;;;;;;;8.15;3.92;;;;;;;22.79;59.00;101366.78;4948875;29;20301;-80
2022/10/23 11:26:26;;;;;;;5.90;3.90;;;;;;;21.85;60.97;101362.59;4954228;29;20208;-80
2022/10/23 11:29:11;;;;;;;7.40;3.83;;;;;;;21.72;61.80;101358.50;4936404;29;20254;-79
2022/10/23 11:31:37;;;;;;;8.17;4.23;;;;;;;22.14;61.36;101344.66;4956144;29;20577;-78
2022/10/23 11:34:11;;;;;;;6.87;3.63;;;;;;;21.63;62.13;101350.81;4956166;28;20193;-79
2022/10/23 11:36:49;;;;;;;7.60;3.70;;;;;;;21.54;64.02;101347.47;4954323;29;20193;-79
2022/10/23 11:39:30;;;;;;;5.63;3.23;;;;;;;21.56;64.04;101341.34;4957160;28;20189;-78
2022/10/23 11:42:05;;;;;;;7.63;4.10;;;;;;;21.13;64.51;101342.94;4957568;28;20220;-79
2022/10/23 11:44:33;;;;;;;5.03;3.67;;;;;;;21.03;66.02;101337.91;4953556;29;20202;-79